createdAt,value
2022-10-04T00:02:41.793Z,2.03
2022-10-04T00:08:34.764Z,2.20
2022-10-04T00:13:49.379Z,1.30
2022-10-04T00:25:04.603Z,1.57
2022-10-04T00:30:20.438Z,1.20
2022-10-04T00:35:41.549Z,1.03
2022-10-04T00:41:09.965Z,1.00
2022-10-04T00:46:37.967Z,1.00
2022-10-04T00:52:06.427Z,1.57
2022-10-04T00:57:18.992Z,1.23
2022-10-04T01:02:32.104Z,2.10
2022-10-04T01:08:21.888Z,2.50
2022-10-04T01:13:48.458Z,1.97
2022-10-04T01:18:58.678Z,2.07
2022-10-04T01:24:24.794Z,2.03
2022-10-04T01:35:11.408Z,1.53
2022-10-04T01:40:52.225Z,2.03
2022-10-04T01:51:39.984Z,2.07
2022-10-04T02:02:51.609Z,2.30
2022-10-04T02:14:02.181Z,2.23
2022-10-04T02:24:40.512Z,1.90
2022-10-04T02:29:48.314Z,2.43
2022-10-04T02:34:55.894Z,2.40
2022-10-04T02:40:10.462Z,2.60
2022-10-04T02:45:23.859Z,2.20
2022-10-04T02:50:44.242Z,2.00
2022-10-04T02:55:50.353Z,2.13
2022-10-04T03:06:41.228Z,1.83
2022-10-04T03:11:46.841Z,1.80
2022-10-04T03:17:01.982Z,2.47
2022-10-04T03:22:15.187Z,2.13
2022-10-04T03:27:41.748Z,2.10
2022-10-04T03:32:48.562Z,2.20
2022-10-04T03:37:55.184Z,3.23
2022-10-04T03:43:09.059Z,3.60
2022-10-04T03:48:17.696Z,2.07
2022-10-04T03:53:36.198Z,2.50
2022-10-04T03:58:41.891Z,2.33
2022-10-04T04:04:05.110Z,2.20
2022-10-04T04:09:12.763Z,2.23
2022-10-04T04:14:34.409Z,1.67
2022-10-04T04:19:40.107Z,2.17
2022-10-04T04:24:47.318Z,2.10
2022-10-04T04:29:55.910Z,2.30
2022-10-04T04:35:07.618Z,2.90
2022-10-04T04:40:24.945Z,2.70
2022-10-04T04:45:39.126Z,2.60
2022-10-04T04:50:59.428Z,4.87
2022-10-04T04:56:32.105Z,4.37
2022-10-04T05:01:45.967Z,3.00
2022-10-04T05:07:10.422Z,3.13
2022-10-04T05:12:20.346Z,4.03
2022-10-04T05:17:31.330Z,2.73
2022-10-04T05:28:05.833Z,3.87
2022-10-04T05:38:44.020Z,2.77
2022-10-04T05:43:53.010Z,2.13
2022-10-04T05:49:19.326Z,2.80
2022-10-04T05:54:29.217Z,3.63
2022-10-04T05:59:46.097Z,3.43
2022-10-04T06:05:02.560Z,3.27
2022-10-04T06:10:32.450Z,3.00
2022-10-04T06:15:43.072Z,2.90
2022-10-04T06:21:02.063Z,3.07
2022-10-04T06:26:14.379Z,3.07
2022-10-04T06:31:55.389Z,3.70
2022-10-04T06:37:15.758Z,3.20
2022-10-04T06:43:00.950Z,2.93
2022-10-04T06:48:41.402Z,2.93
2022-10-04T06:53:52.294Z,2.60
2022-10-04T06:59:06.275Z,2.60
2022-10-04T07:05:06.601Z,2.43
2022-10-04T07:09:57.935Z,2.10
2022-10-04T07:15:27.457Z,1.90
2022-10-04T07:20:39.865Z,1.70
2022-10-04T07:25:51.267Z,2.20
2022-10-04T07:31:31.378Z,2.30
2022-10-04T07:36:48.127Z,1.97
2022-10-04T07:42:35.842Z,2.47
2022-10-04T07:47:47.208Z,5.00
2022-10-04T07:53:13.701Z,1.97
2022-10-04T07:58:45.533Z,1.57
2022-10-04T08:04:26.550Z,1.30
2022-10-04T08:09:47.877Z,1.00
2022-10-04T08:15:14.100Z,1.27
2022-10-04T08:20:27.982Z,0.70
2022-10-04T08:26:03.325Z,1.13
2022-10-04T08:31:48.885Z,0.60
2022-10-04T08:37:10.425Z,0.97
2022-10-04T08:42:41.532Z,0.70
2022-10-04T08:48:18.273Z,0.80
2022-10-04T08:53:49.961Z,1.00
2022-10-04T08:59:26.171Z,0.83
2022-10-04T09:04:51.393Z,0.83
2022-10-04T09:10:23.011Z,0.90
2022-10-04T09:15:47.470Z,0.97
2022-10-04T09:21:02.636Z,0.60
2022-10-04T09:26:33.552Z,0.80
2022-10-04T09:32:00.091Z,1.03
2022-10-04T09:37:26.299Z,4.30
2022-10-04T09:42:57.013Z,1.03
2022-10-04T09:48:30.826Z,1.20
2022-10-04T09:54:03.412Z,0.80
2022-10-04T09:59:28.317Z,1.23
2022-10-04T10:04:59.596Z,1.07
2022-10-04T10:11:01.805Z,1.20
2022-10-04T10:16:28.393Z,0.70
2022-10-04T10:21:54.051Z,0.90
2022-10-04T10:27:07.790Z,1.00
2022-10-04T10:32:50.634Z,0.87
2022-10-04T10:38:16.472Z,1.83
2022-10-04T10:43:39.851Z,1.30
2022-10-04T10:49:01.395Z,0.70
2022-10-04T10:54:30.800Z,1.00
2022-10-04T10:59:49.042Z,1.00
2022-10-04T11:11:25.447Z,0.63
2022-10-04T11:16:52.216Z,0.90
2022-10-04T11:22:36.016Z,0.63
2022-10-04T11:27:58.604Z,0.97
2022-10-04T11:33:43.152Z,0.80
2022-10-04T11:39:09.885Z,0.77
2022-10-04T11:44:37.253Z,0.83
2022-10-04T11:49:55.765Z,0.67
2022-10-04T11:55:24.615Z,0.60
2022-10-04T12:00:51.080Z,0.93
2022-10-04T12:06:23.547Z,0.67
2022-10-04T12:12:09.385Z,0.70
2022-10-04T12:17:43.767Z,0.73
2022-10-04T12:23:10.490Z,0.60
2022-10-04T12:28:43.789Z,0.87
2022-10-04T12:34:16.330Z,0.70
2022-10-04T12:39:31.850Z,1.00
2022-10-04T12:45:04.626Z,0.73
2022-10-04T12:50:18.919Z,0.87
2022-10-04T12:56:01.351Z,0.50
2022-10-04T13:01:31.735Z,0.70
2022-10-04T13:07:01.523Z,0.70
2022-10-04T13:12:30.064Z,0.67
2022-10-04T13:17:52.747Z,0.70
2022-10-04T13:23:01.389Z,0.60
2022-10-04T13:28:29.912Z,0.60
2022-10-04T13:34:02.397Z,0.63
2022-10-04T13:39:13.692Z,0.47
2022-10-04T13:44:24.679Z,0.80
2022-10-04T13:50:00.186Z,0.70
2022-10-04T13:55:26.097Z,0.80
2022-10-04T14:00:43.265Z,1.60
2022-10-04T14:06:06.589Z,1.20
2022-10-04T14:11:37.188Z,2.10
2022-10-04T14:17:18.460Z,0.80
2022-10-04T14:22:53.595Z,1.60
2022-10-04T14:28:20.396Z,2.07
2022-10-04T14:33:50.044Z,7.40
2022-10-04T14:39:15.770Z,2.83
2022-10-04T14:44:33.077Z,6.17
2022-10-04T14:50:02.374Z,6.40
2022-10-04T14:55:31.212Z,4.57
2022-10-04T15:01:08.059Z,1.90
2022-10-04T15:06:28.113Z,5.37
2022-10-04T15:11:42.258Z,12.67
2022-10-04T15:17:02.383Z,19.30
2022-10-04T15:22:24.267Z,7.97
2022-10-04T15:27:38.128Z,8.00
2022-10-04T15:33:01.447Z,8.23
2022-10-04T15:38:35.157Z,12.70
2022-10-04T15:43:54.132Z,6.00
2022-10-04T15:49:17.301Z,7.90
2022-10-04T15:54:53.983Z,10.53
2022-10-04T16:00:04.729Z,56.33
2022-10-04T16:05:19.866Z,26.03
2022-10-04T16:10:28.058Z,13.07
2022-10-04T16:15:39.170Z,12.47
2022-10-04T16:21:06.753Z,18.73
2022-10-04T16:26:16.169Z,6.37
2022-10-04T16:31:40.996Z,2.60
2022-10-04T16:36:52.606Z,2.70
2022-10-04T16:42:06.586Z,2.83
2022-10-04T16:47:26.871Z,5.73
2022-10-04T16:53:00.852Z,6.67
2022-10-04T16:58:28.733Z,9.23
2022-10-04T17:03:37.276Z,16.40
2022-10-04T17:09:00.086Z,36.83
2022-10-04T17:14:08.262Z,39.83
2022-10-04T17:19:34.252Z,31.03
2022-10-04T17:24:44.967Z,23.73
2022-10-04T17:30:24.091Z,19.37
2022-10-04T17:35:48.303Z,15.30
2022-10-04T17:41:14.355Z,12.23
2022-10-04T17:46:31.372Z,11.30
2022-10-04T17:52:02.663Z,11.63
2022-10-04T17:57:16.385Z,7.20
2022-10-04T18:02:27.673Z,5.73
2022-10-04T18:07:44.538Z,6.80
2022-10-04T18:12:58.197Z,7.67
2022-10-04T18:18:16.233Z,8.10
2022-10-04T18:23:30.143Z,6.33
2022-10-04T18:28:35.550Z,6.73
2022-10-04T18:33:50.318Z,36.03
2022-10-04T18:39:16.386Z,86.17
2022-10-04T18:44:24.291Z,75.47
2022-10-04T18:49:33.109Z,52.80
2022-10-04T18:55:15.608Z,25.10
2022-10-04T19:00:38.557Z,19.93
2022-10-04T19:06:05.356Z,18.77
2022-10-04T19:11:19.465Z,20.47
2022-10-04T19:16:44.735Z,23.47
2022-10-04T19:22:11.800Z,17.27
2022-10-04T19:27:28.976Z,20.00
2022-10-04T19:32:57.697Z,16.97
2022-10-04T19:38:32.604Z,16.33
2022-10-04T19:44:06.198Z,17.47
2022-10-04T19:49:23.257Z,18.33
2022-10-04T19:54:32.173Z,20.20
2022-10-04T19:59:40.722Z,18.70
2022-10-04T20:04:48.115Z,15.93
2022-10-04T20:09:59.385Z,15.20
2022-10-04T20:15:14.618Z,18.00
2022-10-04T20:20:42.137Z,19.60
2022-10-04T20:25:50.751Z,16.43
2022-10-04T20:30:58.643Z,17.67
2022-10-04T20:36:11.224Z,15.50
2022-10-04T20:41:55.251Z,16.17
2022-10-04T20:47:01.779Z,14.37
2022-10-04T20:52:06.977Z,13.23
2022-10-04T20:57:13.790Z,14.33
2022-10-04T21:02:19.228Z,15.83
2022-10-04T21:07:26.895Z,19.03
2022-10-04T21:12:38.076Z,19.57
2022-10-04T21:17:44.461Z,22.57
2022-10-04T21:22:53.198Z,19.00
2022-10-04T21:27:58.047Z,16.07
2022-10-04T21:33:03.267Z,15.23
2022-10-04T21:38:08.451Z,14.93
2022-10-04T21:43:13.600Z,13.93
2022-10-04T21:48:20.440Z,14.30
2022-10-04T21:53:25.588Z,14.17
2022-10-04T21:58:32.273Z,13.00
2022-10-04T22:03:37.401Z,12.53
2022-10-04T22:08:43.236Z,10.50
2022-10-04T22:13:49.115Z,12.43
2022-10-04T22:18:54.820Z,12.13
2022-10-04T22:24:00.644Z,11.67
2022-10-04T22:29:08.800Z,11.20
2022-10-04T22:34:22.872Z,10.53
2022-10-04T22:39:30.150Z,10.83
2022-10-04T22:44:39.353Z,9.97
2022-10-04T22:49:47.742Z,10.00
2022-10-04T22:54:55.863Z,9.70
2022-10-04T23:00:01.042Z,9.77
2022-10-04T23:05:18.209Z,9.27
2022-10-04T23:10:23.521Z,7.97
2022-10-04T23:15:28.676Z,7.77
2022-10-04T23:20:34.094Z,8.73
2022-10-04T23:25:42.682Z,9.37
2022-10-04T23:30:50.816Z,10.00
2022-10-04T23:35:58.068Z,11.40
2022-10-04T23:41:03.714Z,9.77
2022-10-04T23:46:20.315Z,9.93
2022-10-04T23:51:25.534Z,8.23
2022-10-04T23:56:31.060Z,8.10
